Time;durP1;ratioP1;P1;durP2;ratioP2;P2;SDS_P1;SDS_P2;PMS_P1;PMS_P2;Temp;Humidity;BMP_temperature;BMP_pressure;BME280_temperature;BME280_humidity;BME280_pressure;Samples;Min_cycle;Max_cycle;Signal;HPM_P1;HPM_P2
2022/02/26 00:00:51;;;;;;;21.67;3.95;;;5.10;79.50;;;;;;9185292;19;20029;-62
2022/02/26 00:03:56;;;;;;;27.98;4.15;;;5.10;79.60;;;;;;9184564;19;20022;-62
2022/02/26 00:07:01;;;;;;;35.80;4.28;;;5.10;79.60;;;;;;9185134;19;20022;-63
2022/02/26 00:10:07;;;;;;;19.52;2.90;;;5.10;79.60;;;;;;9180339;19;20023;-63
2022/02/26 00:13:14;;;;;;;21.92;3.33;;;5.10;79.70;;;;;;9180190;19;20520;-63
2022/02/26 00:16:22;;;;;;;32.78;4.88;;;5.10;79.70;;;;;;9182605;19;20017;-64
2022/02/26 00:19:27;;;;;;;22.33;3.90;;;5.10;79.70;;;;;;9183405;19;20487;-61
2022/02/26 00:22:33;;;;;;;26.05;3.80;;;5.00;79.60;;;;;;9183532;19;20026;-63
2022/02/26 00:25:38;;;;;;;21.95;3.03;;;5.00;79.70;;;;;;9178638;19;20019;-62
2022/02/26 00:28:44;;;;;;;30.30;4.55;;;5.00;79.70;;;;;;9177326;19;20014;-63
2022/02/26 00:31:51;;;;;;;23.90;3.60;;;5.00;79.70;;;;;;9183350;19;20029;-62
2022/02/26 00:34:56;;;;;;;25.30;4.50;;;5.00;79.80;;;;;;9183502;19;20021;-62
2022/02/26 00:38:01;;;;;;;24.55;3.80;;;5.00;79.80;;;;;;9182307;19;20007;-64
2022/02/26 00:41:10;;;;;;;28.23;4.05;;;4.90;79.80;;;;;;9178810;19;20444;-63
2022/02/26 00:44:15;;;;;;;25.88;4.00;;;4.90;79.80;;;;;;9179520;19;20022;-63
2022/02/26 00:47:22;;;;;;;28.83;3.67;;;4.90;79.80;;;;;;9180934;19;20026;-62
2022/02/26 00:50:27;;;;;;;23.52;3.20;;;4.90;79.90;;;;;;9182202;19;20019;-63
2022/02/26 00:53:32;;;;;;;34.25;3.85;;;4.90;79.90;;;;;;9183367;19;20352;-63
2022/02/26 00:56:38;;;;;;;23.50;3.97;;;4.90;79.90;;;;;;9180954;19;20015;-63
2022/02/26 00:59:44;;;;;;;24.85;3.03;;;4.80;79.90;;;;;;9177220;19;20022;-63
2022/02/26 01:02:52;;;;;;;27.90;3.55;;;4.80;79.90;;;;;;9180185;19;20019;-61
2022/02/26 01:05:57;;;;;;;18.95;3.60;;;4.80;80.00;;;;;;9182313;19;20021;-62
2022/02/26 01:09:02;;;;;;;26.02;4.47;;;4.80;80.00;;;;;;9179277;19;20023;-66
2022/02/26 01:12:09;;;;;;;21.92;3.38;;;4.80;80.00;;;;;;9178281;19;20052;-62
2022/02/26 01:15:14;;;;;;;26.92;3.80;;;4.80;80.00;;;;;;9180614;19;20057;-64
2022/02/26 01:18:22;;;;;;;24.02;4.00;;;4.80;80.00;;;;;;9180580;19;20022;-62
2022/02/26 01:21:27;;;;;;;22.08;3.67;;;4.80;80.00;;;;;;9181846;19;20384;-64
2022/02/26 01:24:35;;;;;;;32.75;4.57;;;4.80;80.00;;;;;;9181757;19;20019;-62
2022/02/26 01:27:41;;;;;;;31.90;4.38;;;4.70;80.00;;;;;;9173291;19;20551;-63
2022/02/26 01:30:46;;;;;;;21.25;3.60;;;4.80;80.00;;;;;;9178724;19;20041;-63
2022/02/26 01:33:55;;;;;;;23.65;3.67;;;4.70;80.00;;;;;;9180145;19;20018;-62
2022/02/26 01:37:00;;;;;;;30.40;3.25;;;4.70;80.00;;;;;;9180416;19;20025;-62
2022/02/26 01:40:06;;;;;;;27.80;4.35;;;4.70;80.10;;;;;;9181447;19;20475;-61
2022/02/26 01:43:11;;;;;;;22.27;3.35;;;4.70;80.10;;;;;;9177658;19;20019;-61
2022/02/26 01:46:16;;;;;;;31.38;4.13;;;4.70;80.10;;;;;;9179562;19;20017;-63
2022/02/26 01:49:24;;;;;;;25.45;3.65;;;4.60;80.10;;;;;;9177842;19;20019;-62
2022/02/26 01:52:29;;;;;;;22.55;4.10;;;4.60;80.10;;;;;;9181569;19;20021;-65
2022/02/26 01:55:34;;;;;;;24.38;3.13;;;4.60;80.10;;;;;;9176238;19;20033;-63
2022/02/26 01:58:41;;;;;;;20.15;3.97;;;4.60;80.20;;;;;;9178947;19;20014;-62
2022/02/26 02:01:46;;;;;;;23.52;4.53;;;4.60;80.20;;;;;;9175380;19;20023;-62
2022/02/26 02:04:54;;;;;;;24.58;3.35;;;4.60;80.20;;;;;;9177478;19;20356;-63
2022/02/26 02:08:00;;;;;;;17.52;3.25;;;4.60;80.20;;;;;;9179422;19;20011;-64
2022/02/26 02:11:10;;;;;;;26.45;4.00;;;4.50;80.10;;;;;;9175137;19;20018;-61
2022/02/26 02:14:15;;;;;;;17.77;2.58;;;4.50;80.20;;;;;;9179428;19;20007;-63
2022/02/26 02:17:21;;;;;;;14.00;3.00;;;4.50;80.10;;;;;;9176211;19;20025;-63
2022/02/26 02:20:29;;;;;;;22.35;4.72;;;4.50;80.10;;;;;;9178682;19;20018;-62
2022/02/26 02:23:36;;;;;;;14.82;2.97;;;4.50;80.10;;;;;;9178227;19;20018;-62
2022/02/26 02:26:42;;;;;;;27.08;4.82;;;4.50;80.10;;;;;;9175383;19;20093;-62
2022/02/26 02:29:47;;;;;;;26.38;3.17;;;4.40;80.00;;;;;;9171234;19;20887;-63
2022/02/26 02:32:54;;;;;;;25.20;3.25;;;4.40;80.00;;;;;;9178918;19;20025;-63
2022/02/26 02:35:59;;;;;;;23.83;3.85;;;4.30;80.00;;;;;;9179946;19;20491;-62
2022/02/26 02:39:06;;;;;;;16.58;2.80;;;4.30;80.00;;;;;;9177130;19;20018;-63
2022/02/26 02:42:12;;;;;;;21.15;3.92;;;4.30;80.10;;;;;;9173998;19;20482;-62
2022/02/26 02:45:18;;;;;;;15.48;3.30;;;4.30;80.00;;;;;;9178313;19;20015;-63
2022/02/26 02:48:23;;;;;;;23.70;4.10;;;4.20;80.00;;;;;;9177668;19;20051;-62
2022/02/26 02:51:28;;;;;;;18.25;3.58;;;4.10;80.00;;;;;;9175310;19;20360;-64
2022/02/26 02:54:35;;;;;;;23.25;3.53;;;4.10;79.90;;;;;;9176265;19;20025;-63
2022/02/26 02:57:41;;;;;;;29.88;3.15;;;4.10;80.00;;;;;;9176548;19;20456;-61
2022/02/26 03:00:46;;;;;;;16.65;3.42;;;4.10;80.00;;;;;;9176971;19;20022;-62
2022/02/26 03:03:52;;;;;;;13.55;2.90;;;4.00;80.00;;;;;;9178211;19;20092;-64
2022/02/26 03:06:56;;;;;;;27.10;4.35;;;4.00;79.90;;;;;;9174351;19;20014;-62
2022/02/26 03:10:08;;;;;;;17.17;2.53;;;4.00;80.00;;;;;;9174408;19;20016;-63
2022/02/26 03:13:13;;;;;;;11.18;2.75;;;3.90;79.90;;;;;;9177294;19;20029;-63
2022/02/26 03:16:18;;;;;;;15.52;3.00;;;3.80;79.90;;;;;;9178006;19;20034;-61
2022/02/26 03:19:23;;;;;;;16.85;2.63;;;3.80;79.90;;;;;;9175428;19;20006;-62
2022/02/26 03:22:28;;;;;;;21.48;3.47;;;3.80;80.00;;;;;;9174373;19;20007;-61
2022/02/26 03:25:36;;;;;;;17.83;3.00;;;3.70;79.90;;;;;;9183001;19;20376;-63
2022/02/26 03:28:41;;;;;;;22.73;2.72;;;3.70;80.00;;;;;;9180088;19;20026;-62
2022/02/26 03:31:46;;;;;;;13.30;3.00;;;3.60;79.90;;;;;;9186400;19;20025;-62
2022/02/26 03:34:51;;;;;;;22.70;3.50;;;3.60;80.00;;;;;;9183628;19;20014;-63
2022/02/26 03:37:56;;;;;;;20.90;3.67;;;3.60;80.00;;;;;;9183467;19;20018;-63
2022/02/26 03:41:04;;;;;;;20.77;3.38;;;3.50;80.50;;;;;;9185274;19;20022;-64
2022/02/26 03:44:10;;;;;;;14.13;2.67;;;3.50;80.00;;;;;;9184834;19;20026;-62
2022/02/26 03:47:18;;;;;;;14.52;2.38;;;3.50;80.00;;;;;;9185062;19;20109;-64
2022/02/26 03:50:23;;;;;;;15.10;2.50;;;3.40;80.00;;;;;;9180159;19;20472;-63
2022/02/26 03:53:28;;;;;;;15.80;2.55;;;3.40;80.00;;;;;;9182431;19;20015;-62
2022/02/26 03:56:35;;;;;;;6.93;1.90;;;3.30;80.00;;;;;;9182152;19;20010;-63
2022/02/26 03:59:40;;;;;;;11.73;2.85;;;3.30;80.00;;;;;;9184652;19;20014;-62
2022/02/26 04:02:46;;;;;;;17.67;2.90;;;3.30;80.00;;;;;;9183333;19;20010;-61
2022/02/26 04:05:51;;;;;;;13.25;2.80;;;3.20;80.10;;;;;;9180291;19;20464;-65
2022/02/26 04:08:56;;;;;;;16.15;3.42;;;3.20;80.00;;;;;;9180875;19;20018;-62
2022/02/26 04:12:04;;;;;;;10.10;2.13;;;3.20;80.10;;;;;;9182068;19;20082;-61
2022/02/26 04:15:11;;;;;;;11.93;2.40;;;3.10;80.10;;;;;;9185201;19;20018;-63
2022/02/26 04:18:16;;;;;;;13.32;3.00;;;3.10;80.10;;;;;;9182877;19;20018;-63
2022/02/26 04:21:23;;;;;;;8.88;1.98;;;3.10;80.10;;;;;;9181393;19;20048;-61
2022/02/26 04:24:28;;;;;;;17.42;2.88;;;3.00;80.00;;;;;;9181503;19;20010;-62
2022/02/26 04:27:38;;;;;;;16.08;2.30;;;3.00;80.10;;;;;;9180138;19;20026;-64
2022/02/26 04:30:43;;;;;;;13.18;4.32;;;3.00;80.10;;;;;;9180761;19;20019;-63
2022/02/26 04:33:48;;;;;;;11.57;2.10;;;3.00;80.10;;;;;;9183937;19;20025;-65
2022/02/26 04:36:53;;;;;;;16.30;2.83;;;2.90;80.10;;;;;;9180507;19;20368;-64
2022/02/26 04:39:59;;;;;;;13.77;3.40;;;2.90;80.10;;;;;;9182347;19;20025;-62
2022/02/26 04:43:06;;;;;;;16.27;3.33;;;2.90;80.10;;;;;;9182754;19;20018;-62
2022/02/26 04:46:12;;;;;;;20.48;3.05;;;2.90;80.20;;;;;;9181363;19;20047;-61
2022/02/26 04:49:17;;;;;;;20.13;3.05;;;2.80;80.10;;;;;;9182534;19;20018;-61
2022/02/26 04:52:22;;;;;;;13.73;2.90;;;2.70;80.10;;;;;;9179823;19;20014;-63
2022/02/26 04:55:27;;;;;;;17.70;2.95;;;2.70;80.10;;;;;;9180979;19;20027;-63
2022/02/26 04:58:35;;;;;;;13.07;2.90;;;2.70;80.10;;;;;;9182491;19;20018;-63
2022/02/26 05:01:40;;;;;;;16.58;2.92;;;2.70;80.20;;;;;;9180628;19;20018;-64
2022/02/26 05:04:45;;;;;;;16.08;3.60;;;2.70;80.20;;;;;;9180320;19;20401;-61
2022/02/26 05:07:50;;;;;;;12.80;2.22;;;2.60;80.20;;;;;;9177698;19;20014;-62
2022/02/26 05:10:55;;;;;;;18.33;4.00;;;2.60;80.20;;;;;;9177387;19;20019;-63
2022/02/26 05:14:03;;;;;;;14.95;3.17;;;2.60;80.20;;;;;;9181708;19;20022;-62
2022/02/26 05:17:08;;;;;;;14.90;2.63;;;2.60;80.20;;;;;;9182409;19;20011;-62
2022/02/26 05:20:14;;;;;;;20.92;2.63;;;2.50;80.20;;;;;;9177807;19;20025;-62
2022/02/26 05:23:19;;;;;;;17.60;3.88;;;2.50;80.20;;;;;;9179990;19;20606;-62
2022/02/26 05:26:24;;;;;;;17.73;4.15;;;2.50;80.30;;;;;;9179855;19;20030;-62
2022/02/26 05:29:32;;;;;;;21.58;3.00;;;2.50;80.30;;;;;;9177952;19;20018;-62
2022/02/26 05:32:37;;;;;;;24.83;3.45;;;2.50;80.30;;;;;;9182424;19;20492;-62
2022/02/26 05:35:42;;;;;;;24.63;3.40;;;2.50;80.30;;;;;;9178475;19;20019;-60
2022/02/26 05:38:47;;;;;;;16.20;3.20;;;2.40;80.20;;;;;;9178538;19;20022;-62
2022/02/26 05:41:52;;;;;;;18.35;3.10;;;2.40;80.30;;;;;;9178657;19;20045;-62
2022/02/26 05:45:00;;;;;;;15.00;3.30;;;2.30;80.30;;;;;;9180199;19;20029;-62
2022/02/26 05:48:05;;;;;;;17.77;3.63;;;2.30;80.30;;;;;;9178166;19;20021;-62
2022/02/26 05:51:10;;;;;;;16.70;3.35;;;2.30;80.40;;;;;;9176431;19;20423;-63
2022/02/26 05:54:15;;;;;;;15.93;3.03;;;2.30;80.40;;;;;;9177534;19;20059;-63
2022/02/26 05:57:20;;;;;;;14.15;2.80;;;2.30;80.30;;;;;;9180638;19;20019;-64
2022/02/26 06:00:28;;;;;;;19.77;3.97;;;2.30;80.40;;;;;;9179268;19;20026;-63
2022/02/26 06:03:33;;;;;;;20.52;3.72;;;2.30;80.40;;;;;;9180787;19;20014;-64
2022/02/26 06:06:38;;;;;;;23.50;3.63;;;2.30;80.40;;;;;;9176435;19;20029;-61
2022/02/26 06:09:43;;;;;;;20.85;3.33;;;2.20;80.40;;;;;;9176784;19;20025;-63
2022/02/26 06:12:48;;;;;;;28.10;4.72;;;2.20;80.50;;;;;;9179822;19;20018;-62
2022/02/26 06:15:55;;;;;;;28.67;3.58;;;2.30;80.50;;;;;;9180185;19;20014;-63
2022/02/26 06:19:01;;;;;;;36.10;5.85;;;2.30;80.50;;;;;;9177562;19;20014;-63
2022/02/26 06:22:06;;;;;;;30.30;4.20;;;2.30;80.50;;;;;;9177489;19;20011;-62
2022/02/26 06:25:12;;;;;;;36.13;5.07;;;2.30;80.60;;;;;;9175955;19;20033;-62
2022/02/26 06:28:17;;;;;;;25.10;5.18;;;2.20;80.50;;;;;;9173597;19;20018;-62
2022/02/26 06:31:25;;;;;;;28.00;4.78;;;2.30;81.20;;;;;;9176520;19;20043;-62
2022/02/26 06:34:30;;;;;;;26.20;4.70;;;2.20;80.50;;;;;;9178579;19;20021;-65
2022/02/26 06:37:36;;;;;;;24.65;4.85;;;2.20;80.60;;;;;;9173411;19;20503;-62
2022/02/26 06:40:41;;;;;;;23.85;5.10;;;2.20;80.60;;;;;;9176525;19;20048;-62
2022/02/26 06:43:46;;;;;;;11.48;3.10;;;2.30;80.70;;;;;;9177707;19;20019;-61
2022/02/26 06:46:54;;;;;;;8.80;3.58;;;2.30;80.70;;;;;;9179556;19;20034;-63
2022/02/26 06:49:59;;;;;;;7.05;2.88;;;2.20;80.60;;;;;;9174899;19;20019;-63
2022/02/26 06:53:04;;;;;;;6.13;2.70;;;2.20;80.60;;;;;;9174079;19;20590;-63
2022/02/26 06:56:09;;;;;;;5.88;2.72;;;2.30;80.70;;;;;;9177989;19;20015;-63
2022/02/26 06:59:15;;;;;;;4.68;2.60;;;2.30;80.70;;;;;;9182114;19;20022;-63
2022/02/26 07:02:22;;;;;;;6.43;3.15;;;2.30;80.70;;;;;;9185353;19;20033;-62
2022/02/26 07:05:28;;;;;;;7.50;2.45;;;2.30;80.70;;;;;;9179739;19;20018;-62
2022/02/26 07:08:33;;;;;;;5.30;3.13;;;2.30;80.70;;;;;;9183811;19;20025;-64
2022/02/26 07:11:38;;;;;;;3.28;2.25;;;2.30;80.70;;;;;;9183779;19;20017;-64
2022/02/26 07:14:43;;;;;;;4.63;2.95;;;2.30;80.70;;;;;;9183939;19;20025;-62
2022/02/26 07:17:50;;;;;;;6.05;2.97;;;2.40;80.80;;;;;;9184266;19;20019;-63
2022/02/26 07:20:55;;;;;;;3.83;2.58;;;2.30;80.80;;;;;;9180388;19;20036;-63
2022/02/26 07:24:00;;;;;;;5.40;2.90;;;2.40;80.80;;;;;;9182258;19;20015;-62
2022/02/26 07:27:06;;;;;;;5.30;2.97;;;2.40;80.80;;;;;;9180710;19;20013;-62
2022/02/26 07:30:12;;;;;;;4.70;2.80;;;2.40;80.90;;;;;;9182690;19;20019;-63
2022/02/26 07:33:22;;;;;;;7.03;3.75;;;2.40;80.90;;;;;;9186952;19;20019;-63
2022/02/26 07:36:27;;;;;;;6.05;3.97;;;2.40;80.90;;;;;;9181869;19;20548;-62
2022/02/26 07:39:32;;;;;;;8.30;4.53;;;2.40;80.90;;;;;;9180814;19;20019;-62
2022/02/26 07:42:37;;;;;;;9.85;4.75;;;2.40;80.90;;;;;;9185096;19;20019;-62
2022/02/26 07:45:42;;;;;;;11.80;5.22;;;2.40;80.90;;;;;;9183419;19;20022;-60
2022/02/26 07:48:50;;;;;;;12.07;5.10;;;2.50;81.00;;;;;;9184132;19;20018;-63
2022/02/26 07:51:55;;;;;;;11.45;5.10;;;2.50;81.10;;;;;;9179996;19;20022;-62
2022/02/26 07:55:00;;;;;;;14.05;4.13;;;2.50;81.10;;;;;;9183445;19;20022;-61
2022/02/26 07:58:05;;;;;;;8.07;4.20;;;2.50;81.10;;;;;;9184753;19;20440;-63
2022/02/26 08:01:10;;;;;;;7.75;3.90;;;2.50;81.10;;;;;;9185573;19;20015;-63
2022/02/26 08:04:18;;;;;;;9.77;5.25;;;2.60;81.20;;;;;;9183198;19;20026;-62
2022/02/26 08:07:23;;;;;;;9.20;4.63;;;2.60;81.20;;;;;;9180766;19;20018;-60
2022/02/26 08:10:30;;;;;;;6.00;3.38;;;2.70;81.20;;;;;;9180392;19;20082;-61
2022/02/26 08:13:35;;;;;;;6.60;3.80;;;2.60;81.20;;;;;;9182754;19;20019;-61
2022/02/26 08:16:41;;;;;;;5.93;3.65;;;2.70;81.20;;;;;;9185215;19;20015;-61
2022/02/26 08:19:48;;;;;;;10.13;4.07;;;2.70;81.30;;;;;;9184690;19;20014;-61
2022/02/26 08:22:54;;;;;;;7.38;4.35;;;2.80;81.30;;;;;;9181512;19;20391;-61
2022/02/26 08:26:00;;;;;;;9.55;3.97;;;2.80;81.30;;;;;;9182668;19;20011;-61
2022/02/26 08:29:05;;;;;;;23.70;4.35;;;2.80;81.30;;;;;;9177283;19;20022;-61
2022/02/26 08:32:11;;;;;;;6.63;4.07;;;2.80;81.30;;;;;;9181558;19;20018;-61
2022/02/26 08:35:19;;;;;;;10.25;4.05;;;2.90;81.50;;;;;;9180753;19;20258;-62
2022/02/26 08:38:24;;;;;;;8.55;4.30;;;2.90;82.10;;;;;;9181193;19;20014;-60
2022/02/26 08:41:30;;;;;;;15.18;4.55;;;3.00;81.50;;;;;;9181125;19;20034;-61
2022/02/26 08:44:35;;;;;;;11.52;4.95;;;3.00;81.50;;;;;;9181272;19;20022;-62
2022/02/26 08:47:40;;;;;;;9.70;4.53;;;3.10;81.60;;;;;;9181626;19;20011;-61
2022/02/26 08:50:48;;;;;;;9.77;4.90;;;3.10;81.50;;;;;;9177977;19;20006;-61
2022/02/26 08:53:54;;;;;;;11.38;4.82;;;3.10;81.60;;;;;;9174240;19;20373;-61
2022/02/26 08:57:00;;;;;;;6.80;4.30;;;3.20;81.60;;;;;;9174745;19;20018;-61
2022/02/26 09:00:08;;;;;;;9.95;5.10;;;3.20;81.60;;;;;;9175826;19;20051;-63
2022/02/26 09:03:13;;;;;;;9.07;4.75;;;3.30;81.70;;;;;;9177126;19;20046;-62
2022/02/26 09:06:21;;;;;;;8.43;5.18;;;3.30;81.80;;;;;;9172809;19;20052;-62
2022/02/26 09:09:26;;;;;;;11.95;5.10;;;3.40;81.80;;;;;;9173315;19;20377;-64
2022/02/26 09:12:32;;;;;;;10.75;5.78;;;3.50;81.80;;;;;;9174210;19;20014;-63
2022/02/26 09:15:37;;;;;;;23.45;6.05;;;3.50;81.90;;;;;;9175150;19;20022;-62
2022/02/26 09:18:42;;;;;;;13.48;5.63;;;3.60;82.00;;;;;;9175580;19;20095;-65
2022/02/26 09:21:52;;;;;;;9.80;5.82;;;3.70;82.00;;;;;;9169627;19;20548;-64
2022/02/26 09:24:57;;;;;;;10.82;5.72;;;3.80;82.10;;;;;;9172774;19;20010;-63
2022/02/26 09:28:02;;;;;;;11.75;5.50;;;3.80;82.10;;;;;;9169869;19;20019;-65
2022/02/26 09:31:08;;;;;;;13.90;5.97;;;3.90;82.10;;;;;;9173959;19;20520;-64
2022/02/26 09:34:13;;;;;;;24.80;6.05;;;4.00;82.10;;;;;;9173945;19;20026;-62
2022/02/26 09:37:21;;;;;;;12.10;5.78;;;4.10;82.10;;;;;;9171585;19;20034;-62
2022/02/26 09:40:26;;;;;;;19.02;6.53;;;4.20;82.20;;;;;;9173743;19;20078;-62
2022/02/26 09:43:31;;;;;;;12.25;6.35;;;4.30;82.20;;;;;;9172512;19;20018;-63
2022/02/26 09:46:36;;;;;;;15.38;6.32;;;4.40;82.30;;;;;;9173587;19;20022;-66
2022/02/26 09:49:41;;;;;;;15.77;6.35;;;4.40;82.20;;;;;;9173661;19;20014;-63
2022/02/26 09:52:51;;;;;;;13.95;6.60;;;4.50;82.30;;;;;;9170427;19;20026;-63
2022/02/26 09:55:59;;;;;;;16.98;6.63;;;4.70;82.40;;;;;;9173421;19;20022;-63
2022/02/26 09:59:07;;;;;;;21.48;9.07;;;4.70;82.30;;;;;;9173920;19;20097;-63
2022/02/26 10:02:13;;;;;;;14.65;8.65;;;4.80;82.30;;;;;;9173920;19;20381;-64
2022/02/26 10:05:19;;;;;;;21.08;9.80;;;4.90;82.40;;;;;;9172400;19;20022;-62
2022/02/26 10:08:26;;;;;;;22.15;8.75;;;5.00;82.40;;;;;;9171419;19;20033;-62
2022/02/26 10:11:34;;;;;;;18.90;8.65;;;5.10;82.50;;;;;;9174344;19;20022;-62
2022/02/26 10:14:39;;;;;;;25.65;9.48;;;5.20;82.50;;;;;;9174252;19;20106;-63
2022/02/26 10:17:46;;;;;;;16.80;8.18;;;5.30;82.50;;;;;;9174703;19;20014;-63
2022/02/26 10:20:54;;;;;;;15.63;8.25;;;5.40;82.50;;;;;;9172843;19;20010;-63
2022/02/26 10:24:02;;;;;;;22.02;7.95;;;5.50;82.50;;;;;;9170049;19;20026;-63
2022/02/26 10:27:12;;;;;;;14.27;6.78;;;5.60;82.60;;;;;;9165901;19;20026;-63
2022/02/26 10:30:24;;;;;;;18.60;7.25;;;5.70;82.50;;;;;;9171271;19;20476;-63
2022/02/26 10:33:31;;;;;;;16.45;7.00;;;5.80;82.50;;;;;;9171580;19;21050;-63
2022/02/26 10:36:37;;;;;;;28.77;6.75;;;5.90;82.50;;;;;;9174887;19;20011;-61
2022/02/26 10:39:47;;;;;;;16.48;6.60;;;6.00;82.50;;;;;;9170935;19;20010;-62
2022/02/26 10:42:52;;;;;;;20.60;6.68;;;6.10;82.60;;;;;;9171533;19;20365;-63
2022/02/26 10:46:20;;;;;;;21.17;6.43;;;6.20;82.60;;;;;;9171016;19;20025;-62
2022/02/26 10:49:25;;;;;;;22.85;5.78;;;6.30;82.80;;;;;;9173282;19;20019;-63
2022/02/26 10:52:33;;;;;;;19.98;6.47;;;6.40;82.70;;;;;;9171681;19;20015;-64
2022/02/26 10:55:57;;;;;;;21.77;5.68;;;6.50;82.80;;;;;;9171356;19;20029;-64
2022/02/26 10:59:03;;;;;;;24.98;5.40;;;6.60;82.80;;;;;;9169554;19;20343;-62
2022/02/26 11:02:10;;;;;;;15.10;6.38;;;6.70;82.70;;;;;;9169176;19;20019;-63
2022/02/26 11:05:17;;;;;;;19.30;5.95;;;6.90;82.80;;;;;;9172163;19;20023;-66
2022/02/26 11:08:22;;;;;;;16.40;5.53;;;7.00;82.80;;;;;;9171853;19;20011;-63
2022/02/26 11:11:30;;;;;;;26.25;5.63;;;7.10;82.90;;;;;;9174000;19;20468;-62
2022/02/26 11:14:39;;;;;;;15.98;4.93;;;7.30;83.00;;;;;;9168816;19;20488;-64
2022/02/26 11:17:44;;;;;;;16.40;4.57;;;7.40;83.10;;;;;;9170538;19;20007;-61
2022/02/26 11:20:49;;;;;;;17.77;5.53;;;7.60;83.00;;;;;;9170641;19;20052;-61
2022/02/26 11:23:54;;;;;;;22.58;4.63;;;7.80;83.00;;;;;;9172206;19;20018;-63
2022/02/26 11:27:02;;;;;;;20.05;4.65;;;7.90;83.00;;;;;;9170325;19;20019;-62
2022/02/26 11:30:09;;;;;;;12.52;3.85;;;8.20;83.10;;;;;;9167418;19;20018;-63
2022/02/26 11:33:14;;;;;;;16.02;3.33;;;8.40;83.00;;;;;;9168650;19;20018;-61
2022/02/26 11:36:21;;;;;;;17.60;3.28;;;8.60;82.90;;;;;;9170283;19;20018;-61
2022/02/26 11:39:31;;;;;;;20.65;3.30;;;8.80;82.70;;;;;;9171366;19;20248;-61
2022/02/26 11:42:41;;;;;;;16.67;3.08;;;9.00;82.50;;;;;;9168779;19;20025;-62
2022/02/26 11:45:46;;;;;;;12.13;3.03;;;9.30;82.20;;;;;;9174554;19;20010;-64
2022/02/26 11:48:52;;;;;;;12.48;2.42;;;9.40;81.80;;;;;;9177717;19;20022;-63
2022/02/26 11:51:57;;;;;;;25.30;3.50;;;9.60;81.50;;;;;;9176169;19;20458;-63
2022/02/26 11:55:02;;;;;;;15.32;2.92;;;9.80;81.10;;;;;;9177386;19;20531;-64
2022/02/26 11:58:14;;;;;;;19.50;2.08;;;9.90;80.80;;;;;;9179013;19;20014;-63
2022/02/26 12:01:24;;;;;;;18.65;3.42;;;10.10;80.50;;;;;;9174995;19;20014;-63
2022/02/26 12:04:44;;;;;;;24.20;2.60;;;10.30;80.30;;;;;;9177091;19;20018;-63
2022/02/26 12:07:49;;;;;;;18.63;2.67;;;10.40;79.80;;;;;;9177129;19;20060;-63
2022/02/26 12:10:58;;;;;;;16.27;1.98;;;10.50;79.80;;;;;;9175327;19;20498;-64
2022/02/26 12:14:07;;;;;;;10.93;2.05;;;10.70;79.60;;;;;;9178678;19;20026;-64
2022/02/26 12:17:18;;;;;;;12.18;2.30;;;10.80;79.30;;;;;;9173151;19;20082;-65
2022/02/26 12:20:31;;;;;;;20.23;3.83;;;10.90;79.30;;;;;;9174549;19;20018;-63
2022/02/26 12:23:38;;;;;;;18.65;3.25;;;11.10;79.00;;;;;;9176012;19;20025;-61
2022/02/26 12:26:55;;;;;;;16.13;2.70;;;11.10;78.70;;;;;;9180125;19;20022;-62
2022/02/26 12:30:09;;;;;;;13.48;2.90;;;11.30;78.30;;;;;;9173802;19;20014;-65
2022/02/26 12:33:18;;;;;;;22.38;4.32;;;11.30;77.90;;;;;;9175446;19;20022;-60
2022/02/26 12:36:23;;;;;;;14.57;2.75;;;11.40;77.80;;;;;;9175159;19;20057;-62
2022/02/26 12:39:31;;;;;;;16.27;3.53;;;11.50;77.80;;;;;;9176359;19;20029;-63
2022/02/26 12:42:38;;;;;;;14.10;2.20;;;11.50;77.30;;;;;;9177544;19;20022;-61
2022/02/26 12:45:47;;;;;;;18.35;3.38;;;11.60;77.20;;;;;;9177452;19;20022;-61
2022/02/26 12:48:53;;;;;;;14.82;2.35;;;11.60;76.90;;;;;;9178621;19;20040;-63
2022/02/26 12:51:59;;;;;;;17.35;2.58;;;11.70;76.90;;;;;;9175172;19;20022;-63
2022/02/26 12:55:09;;;;;;;10.48;2.20;;;11.80;76.70;;;;;;9173655;19;20015;-62
2022/02/26 12:58:14;;;;;;;14.88;2.78;;;11.80;76.40;;;;;;9177399;19;20768;-62
2022/02/26 13:01:27;;;;;;;22.35;2.92;;;11.80;76.40;;;;;;9177893;19;20022;-62
2022/02/26 13:04:34;;;;;;;26.00;3.90;;;11.80;75.90;;;;;;9175507;19;20020;-62
2022/02/26 13:07:39;;;;;;;18.85;3.00;;;11.90;76.20;;;;;;9172869;19;20480;-63
2022/02/26 13:10:46;;;;;;;10.80;2.42;;;11.80;75.80;;;;;;9173113;19;20934;-63
2022/02/26 13:14:06;;;;;;;11.57;2.85;;;11.80;75.60;;;;;;9176126;19;20048;-65
2022/02/26 13:17:13;;;;;;;26.08;3.53;;;11.70;75.00;;;;;;9174378;19;20022;-65
2022/02/26 13:20:23;;;;;;;16.75;2.80;;;11.70;75.30;;;;;;9177398;19;20090;-62
2022/02/26 13:23:29;;;;;;;12.73;2.92;;;11.60;75.20;;;;;;9173385;19;20023;-62
2022/02/26 13:26:35;;;;;;;11.95;3.83;;;11.50;75.20;;;;;;9172534;19;20029;-62
2022/02/26 13:29:56;;;;;;;20.33;3.30;;;11.40;75.10;;;;;;9170708;19;20129;-62
2022/02/26 13:33:04;;;;;;;18.45;2.72;;;11.30;75.10;;;;;;9175347;19;20025;-62
2022/02/26 13:36:14;;;;;;;19.80;3.25;;;11.10;74.90;;;;;;9175030;19;20018;-63
2022/02/26 13:39:20;;;;;;;15.75;2.28;;;11.00;74.90;;;;;;9173588;19;20010;-63
2022/02/26 13:42:28;;;;;;;15.13;2.75;;;11.00;75.10;;;;;;9171092;19;20026;-61
2022/02/26 13:45:35;;;;;;;14.23;2.42;;;10.80;75.10;;;;;;9173610;19;20067;-62
2022/02/26 13:48:46;;;;;;;24.10;3.35;;;10.80;75.10;;;;;;9174586;19;20014;-66
2022/02/26 13:51:51;;;;;;;14.20;2.78;;;10.70;74.90;;;;;;9174651;19;20022;-60
2022/02/26 13:55:03;;;;;;;16.27;3.67;;;10.60;75.00;;;;;;9170956;19;20023;-61
2022/02/26 13:58:09;;;;;;;26.67;3.55;;;10.50;75.00;;;;;;9171583;19;20025;-61
2022/02/26 14:01:15;;;;;;;22.90;3.00;;;10.40;75.00;;;;;;9173386;19;20476;-62
2022/02/26 14:04:29;;;;;;;20.48;3.42;;;10.30;75.00;;;;;;9174683;19;20118;-61
2022/02/26 14:07:36;;;;;;;14.93;2.65;;;10.30;74.70;;;;;;9173895;19;20032;-61
2022/02/26 14:10:44;;;;;;;20.35;4.10;;;10.20;74.90;;;;;;9172988;19;20018;-61
2022/02/26 14:13:49;;;;;;;18.75;3.60;;;10.20;74.90;;;;;;9171505;19;20472;-61
2022/02/26 14:16:54;;;;;;;18.30;4.03;;;10.10;74.80;;;;;;9170714;19;20022;-62
2022/02/26 14:20:03;;;;;;;13.88;3.33;;;10.10;74.80;;;;;;9173491;19;20022;-63
2022/02/26 14:23:11;;;;;;;25.75;3.85;;;10.00;74.60;;;;;;9172313;19;20040;-64
2022/02/26 14:26:18;;;;;;;16.38;3.20;;;9.90;74.50;;;;;;9170468;19;20414;-62
2022/02/26 14:29:30;;;;;;;16.70;3.08;;;9.90;74.50;;;;;;9166644;19;20025;-62
2022/02/26 14:32:39;;;;;;;22.83;3.20;;;9.90;74.40;;;;;;9170170;19;20053;-62
2022/02/26 14:35:46;;;;;;;28.52;3.47;;;9.80;74.40;;;;;;9170805;19;20018;-61
2022/02/26 14:38:51;;;;;;;18.70;3.58;;;9.70;74.30;;;;;;9172269;19;20021;-64
2022/02/26 14:41:58;;;;;;;17.63;2.97;;;9.70;74.50;;;;;;9171462;19;20555;-62
2022/02/26 14:45:03;;;;;;;11.60;2.97;;;9.70;74.30;;;;;;9169657;19;20013;-63
2022/02/26 14:48:08;;;;;;;19.63;2.95;;;9.60;74.30;;;;;;9172181;19;20015;-63
2022/02/26 14:51:17;;;;;;;20.27;3.25;;;9.60;74.20;;;;;;9170675;19;20040;-63
2022/02/26 14:54:24;;;;;;;16.33;3.03;;;9.50;74.10;;;;;;9170402;19;20052;-62
2022/02/26 14:57:29;;;;;;;11.70;2.20;;;9.50;74.10;;;;;;9171092;19;20027;-62
2022/02/26 15:00:34;;;;;;;24.63;2.75;;;9.50;74.20;;;;;;9170556;19;20022;-62
2022/02/26 15:03:39;;;;;;;17.80;3.25;;;9.40;74.10;;;;;;9170223;19;20022;-64
2022/02/26 15:06:47;;;;;;;17.20;3.13;;;9.40;74.00;;;;;;9171997;19;20022;-63
2022/02/26 15:09:52;;;;;;;16.35;3.58;;;9.40;74.00;;;;;;9169035;19;20015;-63
2022/02/26 15:12:57;;;;;;;22.10;4.15;;;9.40;74.00;;;;;;9172532;19;20387;-61
2022/02/26 15:16:02;;;;;;;15.15;2.92;;;9.40;73.90;;;;;;9168734;19;20472;-64
2022/02/26 15:19:08;;;;;;;17.52;3.35;;;9.40;73.80;;;;;;9171440;19;20015;-62
2022/02/26 15:22:18;;;;;;;15.15;3.05;;;9.30;73.80;;;;;;9179235;19;20064;-63
2022/02/26 15:25:43;;;;;;;23.23;3.95;;;9.30;73.70;;;;;;9178104;19;20071;-63
2022/02/26 15:28:48;;;;;;;13.50;3.20;;;9.30;73.80;;;;;;9175482;19;20022;-63
2022/02/26 15:31:53;;;;;;;15.73;3.22;;;9.30;73.70;;;;;;9175090;19;20030;-62
2022/02/26 15:34:58;;;;;;;20.67;3.38;;;9.30;73.60;;;;;;9175714;19;20022;-63
2022/02/26 15:38:06;;;;;;;16.42;3.65;;;9.30;73.50;;;;;;9177540;19;20829;-63
2022/02/26 15:41:11;;;;;;;24.55;3.40;;;9.30;73.50;;;;;;9179724;19;20343;-61
2022/02/26 15:44:18;;;;;;;16.45;3.33;;;9.20;73.40;;;;;;9180798;19;20390;-63
2022/02/26 15:47:23;;;;;;;11.48;3.20;;;9.20;73.40;;;;;;9177551;19;20483;-64
2022/02/26 15:50:29;;;;;;;17.77;3.10;;;9.20;73.30;;;;;;9178072;19;20022;-62
2022/02/26 15:53:37;;;;;;;14.90;4.22;;;9.20;73.30;;;;;;9177066;19;20053;-62
2022/02/26 15:56:42;;;;;;;26.73;6.25;;;9.20;73.20;;;;;;9176292;19;20045;-62
2022/02/26 15:59:47;;;;;;;34.58;13.27;;;9.10;73.20;;;;;;9181438;19;20036;-64
2022/02/26 16:02:52;;;;;;;30.00;13.00;;;9.10;73.20;;;;;;9175025;19;20015;-62
2022/02/26 16:05:57;;;;;;;18.80;4.95;;;9.10;73.30;;;;;;9174280;19;20025;-63
2022/02/26 16:09:06;;;;;;;17.27;3.83;;;9.10;73.20;;;;;;9176095;19;20025;-63